Port Republic, Virginia
Current Conditions -  °F | °C
As of 7:15 AM on Tuesday 27 Jan 2015 (Local Time) from KSHD Reporting Station
Scattered Clouds Scattered Clouds  
Wind Chill: 18°   Ceiling: Unl
Heat Index: 24°   Visibility: 10mi
Dew Point: 21°   Wind: 5mph
Humidity: 88%   Direction: 30°NNE
Pressure: 29.79"   Gusts: NA
Location:  38.3°N, 78.81°W
Report Text: KSHD 271215Z AUTO 03004KT 10SM SCT065 M04/M06 A2979 RMK AO2 T10451062
Loading
Personal Weather Stations






























Interactive Weather Map New forecast layout! Learn more

10-Day Weather Forecast

Advertisements
Track Severe Weather on mobile